createdAt,value
2017-09-30T00:00:11.164Z,58.90
2017-09-30T00:02:38.655Z,58.83
2017-09-30T00:05:06.128Z,58.91
2017-09-30T00:07:33.646Z,58.87
2017-09-30T00:10:01.117Z,58.89
2017-09-30T00:12:28.564Z,58.89
2017-09-30T00:14:56.441Z,58.85
2017-09-30T00:17:23.947Z,58.83
2017-09-30T00:19:51.391Z,58.86
2017-09-30T00:22:18.894Z,58.80
2017-09-30T00:24:46.415Z,58.81
2017-09-30T00:27:13.904Z,58.80
2017-09-30T00:29:41.402Z,58.78
2017-09-30T00:32:08.929Z,58.77
2017-09-30T00:34:36.371Z,58.75
2017-09-30T00:37:03.934Z,58.76
2017-09-30T00:39:31.398Z,58.80
2017-09-30T00:41:58.860Z,58.74
2017-09-30T00:44:26.816Z,58.79
2017-09-30T00:46:54.286Z,58.75
2017-09-30T00:49:21.874Z,58.68
2017-09-30T00:51:49.484Z,58.70
2017-09-30T00:54:16.954Z,58.73
2017-09-30T00:56:44.431Z,58.74
2017-09-30T00:59:12.002Z,58.72
2017-09-30T01:01:39.500Z,58.66
2017-09-30T01:04:06.960Z,58.68
2017-09-30T01:06:34.483Z,58.73
2017-09-30T01:09:01.993Z,58.65
2017-09-30T01:11:29.466Z,58.67
2017-09-30T01:13:56.995Z,58.61
2017-09-30T01:16:24.455Z,58.62
2017-09-30T01:18:51.922Z,58.57
2017-09-30T01:21:19.436Z,58.58
2017-09-30T01:23:46.917Z,58.61
2017-09-30T01:26:14.368Z,58.59
2017-09-30T01:28:41.866Z,58.59
2017-09-30T01:31:09.343Z,58.57
2017-09-30T01:33:36.871Z,58.51
2017-09-30T01:36:05.198Z,58.50
2017-09-30T01:38:32.658Z,58.54
2017-09-30T01:41:00.109Z,58.49
2017-09-30T01:43:27.646Z,58.46
2017-09-30T01:45:55.248Z,58.45
2017-09-30T01:48:22.713Z,58.46
2017-09-30T01:50:50.211Z,58.45
2017-09-30T01:53:17.671Z,58.39
2017-09-30T01:55:45.155Z,58.39
2017-09-30T01:58:12.699Z,58.39
2017-09-30T02:00:40.189Z,58.38
2017-09-30T02:03:07.647Z,58.38
2017-09-30T02:05:35.163Z,58.44
2017-09-30T02:08:02.684Z,58.38
2017-09-30T02:10:30.172Z,58.36
2017-09-30T02:12:58.147Z,58.32
2017-09-30T02:15:25.621Z,58.32
2017-09-30T02:17:53.101Z,58.30
2017-09-30T02:20:20.906Z,58.29
2017-09-30T02:22:48.390Z,58.29
2017-09-30T02:25:15.862Z,58.30
2017-09-30T02:27:43.371Z,58.27
2017-09-30T02:30:10.907Z,58.24
2017-09-30T02:32:38.369Z,58.25
2017-09-30T02:35:05.902Z,58.28
2017-09-30T02:37:33.369Z,58.24
2017-09-30T02:40:00.824Z,58.21
2017-09-30T02:42:28.311Z,58.20
2017-09-30T02:44:55.774Z,58.19
2017-09-30T02:47:23.237Z,58.20
2017-09-30T02:49:51.056Z,58.20
2017-09-30T02:52:19.571Z,58.14
2017-09-30T02:54:47.027Z,58.19
2017-09-30T02:57:14.892Z,58.19
2017-09-30T02:59:42.381Z,58.11
2017-09-30T03:02:09.841Z,58.12
2017-09-30T03:04:37.343Z,58.09
2017-09-30T03:07:04.954Z,58.06
2017-09-30T03:09:32.484Z,58.09
2017-09-30T03:11:59.998Z,58.10
2017-09-30T03:14:27.525Z,58.08
2017-09-30T03:16:55.010Z,58.08
2017-09-30T03:19:22.566Z,58.09
2017-09-30T03:21:50.020Z,58.02
2017-09-30T03:24:17.479Z,58.03
2017-09-30T03:26:45.068Z,58.05
2017-09-30T03:29:12.522Z,58.02
2017-09-30T03:31:39.995Z,58.06
2017-09-30T03:34:07.529Z,58.02
2017-09-30T03:36:34.999Z,58.08
2017-09-30T03:39:02.459Z,58.05
2017-09-30T03:41:30.423Z,58.07
2017-09-30T03:43:57.865Z,58.05
2017-09-30T03:46:25.312Z,58.00
2017-09-30T03:48:52.800Z,57.98
2017-09-30T03:51:20.795Z,57.98
2017-09-30T03:53:48.257Z,57.97
2017-09-30T03:56:15.840Z,57.97
2017-09-30T03:58:43.324Z,57.95
2017-09-30T04:01:10.885Z,57.93
2017-09-30T04:03:38.381Z,57.93
2017-09-30T04:06:05.853Z,57.96
2017-09-30T04:08:33.297Z,57.92
2017-09-30T04:11:01.071Z,57.97
2017-09-30T04:13:28.528Z,57.97
2017-09-30T04:15:55.984Z,57.94
2017-09-30T04:18:23.571Z,57.93
2017-09-30T04:20:51.049Z,57.97
2017-09-30T04:23:18.506Z,57.96
2017-09-30T04:25:46.053Z,57.90
2017-09-30T04:28:13.603Z,57.94
2017-09-30T04:30:41.118Z,57.95
2017-09-30T04:33:09.192Z,57.94
2017-09-30T04:35:36.644Z,57.97
2017-09-30T04:38:04.091Z,57.94
2017-09-30T04:40:32.029Z,57.93
2017-09-30T04:42:59.479Z,57.88
2017-09-30T04:45:26.946Z,57.87
2017-09-30T04:47:54.789Z,57.89
2017-09-30T04:50:22.263Z,57.92
2017-09-30T04:52:49.727Z,57.93
2017-09-30T04:55:17.510Z,57.92
2017-09-30T04:57:44.973Z,57.90
2017-09-30T05:00:12.424Z,57.95
2017-09-30T05:02:40.614Z,57.91
2017-09-30T05:05:08.086Z,57.90
2017-09-30T05:07:35.540Z,57.89
2017-09-30T05:10:03.161Z,57.90
2017-09-30T05:12:30.620Z,57.91
2017-09-30T05:14:58.082Z,57.91
2017-09-30T05:17:25.590Z,57.93
2017-09-30T05:19:53.094Z,57.87
2017-09-30T05:22:20.580Z,57.85
2017-09-30T05:24:48.220Z,57.87
2017-09-30T05:27:15.681Z,57.85
2017-09-30T05:29:43.186Z,57.81
2017-09-30T05:32:10.727Z,57.85
2017-09-30T05:34:38.190Z,57.81
2017-09-30T05:37:05.657Z,57.82
2017-09-30T05:39:33.225Z,57.79
2017-09-30T05:42:00.676Z,57.77
2017-09-30T05:44:28.135Z,57.76
2017-09-30T05:46:55.626Z,57.72
2017-09-30T05:49:23.105Z,57.74
2017-09-30T05:51:50.610Z,57.72
2017-09-30T05:54:18.489Z,57.73
2017-09-30T05:56:45.942Z,57.71
2017-09-30T05:59:13.422Z,57.71
2017-09-30T06:01:40.928Z,57.71
2017-09-30T06:04:08.399Z,57.69
2017-09-30T06:06:35.862Z,57.67
2017-09-30T06:09:03.406Z,57.74
2017-09-30T06:11:30.884Z,57.69
2017-09-30T06:13:58.346Z,57.72
2017-09-30T06:16:25.840Z,57.69
2017-09-30T06:18:53.305Z,57.74
2017-09-30T06:21:20.800Z,57.68
2017-09-30T06:23:48.366Z,57.68
2017-09-30T06:26:15.829Z,57.67
2017-09-30T06:28:43.276Z,57.66
2017-09-30T06:31:10.907Z,57.73
2017-09-30T06:33:38.409Z,57.69
2017-09-30T06:36:05.861Z,57.75
2017-09-30T06:38:33.400Z,57.74
2017-09-30T06:41:00.896Z,57.69
2017-09-30T06:43:28.371Z,57.70
2017-09-30T06:45:56.258Z,57.75
2017-09-30T06:48:23.737Z,57.87
2017-09-30T06:50:51.266Z,57.76
2017-09-30T06:53:18.754Z,57.66
2017-09-30T06:55:46.215Z,57.62
2017-09-30T06:58:13.776Z,57.61
2017-09-30T07:00:41.283Z,57.71
2017-09-30T07:03:08.732Z,57.85
2017-09-30T07:05:36.214Z,57.90
2017-09-30T07:08:03.715Z,58.11
2017-09-30T07:10:31.210Z,58.12
2017-09-30T07:12:58.692Z,58.39
2017-09-30T07:15:26.460Z,58.69
2017-09-30T07:17:53.942Z,58.87
2017-09-30T07:20:21.442Z,59.20
2017-09-30T07:22:49.400Z,59.86
2017-09-30T07:25:17.015Z,60.13
2017-09-30T07:27:44.516Z,59.95
2017-09-30T07:30:12.049Z,59.33
2017-09-30T07:32:39.617Z,60.04
2017-09-30T07:35:07.063Z,58.85
2017-09-30T07:37:34.940Z,59.51
2017-09-30T07:40:02.361Z,59.69
2017-09-30T07:42:29.779Z,59.28
2017-09-30T07:44:57.235Z,58.85
2017-09-30T07:47:24.653Z,58.87
2017-09-30T07:49:52.132Z,59.18
2017-09-30T07:52:19.605Z,59.19
2017-09-30T07:54:47.062Z,59.35
2017-09-30T07:57:14.470Z,59.23
2017-09-30T07:59:42.312Z,59.73
2017-09-30T08:02:09.836Z,59.43
2017-09-30T08:04:37.252Z,58.99
2017-09-30T08:07:05.209Z,58.87
2017-09-30T08:09:32.607Z,58.86
2017-09-30T08:12:00.018Z,58.67
2017-09-30T08:14:27.465Z,58.57
2017-09-30T08:16:54.886Z,58.54
2017-09-30T08:19:22.284Z,58.93
2017-09-30T08:21:49.868Z,59.10
2017-09-30T08:24:17.281Z,58.80
2017-09-30T08:26:44.690Z,59.19
2017-09-30T08:29:12.184Z,59.54
2017-09-30T08:31:39.603Z,59.53
2017-09-30T08:34:07.095Z,59.20
2017-09-30T08:36:34.527Z,59.28
2017-09-30T08:39:01.966Z,59.06
2017-09-30T08:41:29.375Z,59.71
2017-09-30T08:43:56.839Z,59.69
2017-09-30T08:46:24.254Z,59.77
2017-09-30T08:48:51.710Z,59.43
2017-09-30T08:51:19.351Z,59.56
2017-09-30T08:53:46.791Z,59.54
2017-09-30T08:56:14.204Z,59.48
2017-09-30T08:58:41.759Z,59.36
2017-09-30T09:01:09.286Z,59.40
2017-09-30T09:03:36.721Z,59.39
2017-09-30T09:06:04.279Z,59.45
2017-09-30T09:08:31.801Z,59.47
2017-09-30T09:10:59.313Z,59.22
2017-09-30T09:13:26.768Z,59.37
2017-09-30T09:15:54.179Z,59.02
2017-09-30T09:18:21.599Z,59.07
2017-09-30T09:20:49.247Z,58.74
2017-09-30T09:23:16.669Z,58.54
2017-09-30T09:25:44.154Z,58.51
2017-09-30T09:28:11.594Z,58.40
2017-09-30T09:30:39.019Z,58.43
2017-09-30T09:33:06.437Z,58.36
2017-09-30T09:35:33.904Z,58.23
2017-09-30T09:38:01.314Z,58.46
2017-09-30T09:40:28.728Z,58.95
2017-09-30T09:42:56.187Z,59.13
2017-09-30T09:45:23.600Z,59.02
2017-09-30T09:47:51.078Z,59.17
2017-09-30T09:50:18.676Z,59.27
2017-09-30T09:52:46.099Z,59.38
2017-09-30T09:55:13.526Z,59.32
2017-09-30T09:57:41.157Z,59.42
2017-09-30T10:00:09.538Z,59.48
2017-09-30T10:02:36.946Z,59.51
2017-09-30T10:05:04.428Z,59.96
2017-09-30T10:07:31.839Z,60.01
2017-09-30T10:09:59.249Z,60.10
2017-09-30T10:12:26.707Z,60.30
2017-09-30T10:14:54.128Z,59.97
2017-09-30T10:17:21.572Z,60.01
2017-09-30T10:19:49.073Z,60.20
2017-09-30T10:22:16.626Z,59.96
2017-09-30T10:24:44.114Z,59.75
2017-09-30T10:27:20.431Z,59.84
2017-09-30T10:29:47.906Z,60.04
2017-09-30T10:32:15.345Z,59.97
2017-09-30T10:34:43.217Z,59.82
2017-09-30T10:37:10.661Z,60.28
2017-09-30T10:39:38.253Z,60.12
2017-09-30T10:42:05.759Z,60.16
2017-09-30T10:44:33.202Z,60.14
2017-09-30T10:47:00.639Z,60.14
2017-09-30T10:49:28.237Z,60.18
2017-09-30T10:51:55.691Z,60.29
2017-09-30T10:54:23.228Z,60.73
2017-09-30T10:56:50.672Z,60.57
2017-09-30T10:59:18.078Z,60.64
2017-09-30T11:01:45.525Z,60.46
2017-09-30T11:04:13.334Z,60.39
2017-09-30T11:06:40.774Z,60.59
2017-09-30T11:09:08.192Z,61.24
2017-09-30T11:11:35.685Z,61.31
2017-09-30T11:14:03.107Z,61.34
2017-09-30T11:16:30.519Z,60.77
2017-09-30T11:18:58.415Z,60.90
2017-09-30T11:21:25.989Z,60.64
2017-09-30T11:23:53.409Z,60.39
2017-09-30T11:26:20.855Z,60.13
2017-09-30T11:28:48.271Z,60.06
2017-09-30T11:31:15.701Z,60.00
2017-09-30T11:33:43.670Z,59.83
2017-09-30T11:36:11.116Z,59.80
2017-09-30T11:38:38.577Z,59.76
2017-09-30T11:41:06.105Z,59.89
2017-09-30T11:43:33.532Z,59.72
2017-09-30T11:46:00.963Z,59.74
2017-09-30T11:48:28.410Z,59.76
2017-09-30T11:50:55.901Z,59.72
2017-09-30T11:53:23.373Z,59.71
2017-09-30T11:55:50.832Z,59.70
2017-09-30T11:58:18.247Z,60.02
2017-09-30T12:00:45.668Z,60.12
2017-09-30T12:03:13.445Z,60.04
2017-09-30T12:05:40.847Z,60.23
2017-09-30T12:08:08.255Z,60.11
2017-09-30T12:10:36.008Z,60.22
2017-09-30T12:13:03.454Z,59.93
2017-09-30T12:15:30.867Z,59.83
2017-09-30T12:17:58.356Z,59.71
2017-09-30T12:20:25.760Z,59.66
2017-09-30T12:22:53.186Z,59.53
2017-09-30T12:25:20.657Z,59.59
2017-09-30T12:27:48.081Z,60.55
2017-09-30T12:30:15.512Z,60.19
2017-09-30T12:32:42.968Z,60.07
2017-09-30T12:35:10.431Z,60.37
2017-09-30T12:37:37.892Z,60.73
2017-09-30T12:40:05.647Z,60.96
2017-09-30T12:42:33.178Z,60.92
2017-09-30T12:45:00.722Z,60.78
2017-09-30T12:47:28.617Z,61.26
2017-09-30T12:49:56.074Z,61.08
2017-09-30T12:52:23.499Z,61.37
2017-09-30T12:54:50.954Z,61.66
2017-09-30T12:57:18.369Z,61.92
2017-09-30T12:59:45.861Z,62.08
2017-09-30T13:02:13.638Z,62.22
2017-09-30T13:04:41.090Z,62.16
2017-09-30T13:07:08.546Z,62.54
2017-09-30T13:09:36.086Z,62.64
2017-09-30T13:12:03.552Z,62.23
2017-09-30T13:14:30.957Z,62.23
2017-09-30T13:16:58.814Z,61.82
2017-09-30T13:19:26.228Z,61.75
2017-09-30T13:21:53.640Z,62.05
2017-09-30T13:24:21.244Z,61.83
2017-09-30T13:26:48.654Z,61.98
2017-09-30T13:29:16.071Z,61.95
2017-09-30T13:31:43.844Z,61.75
2017-09-30T13:34:11.257Z,61.60
2017-09-30T13:36:38.686Z,61.64
2017-09-30T13:39:06.147Z,61.77
2017-09-30T13:41:33.633Z,61.83
2017-09-30T13:44:01.127Z,61.46
2017-09-30T13:46:28.882Z,61.61
2017-09-30T13:48:56.299Z,61.63
2017-09-30T13:51:24.339Z,61.69
2017-09-30T13:53:51.992Z,61.56
2017-09-30T13:56:19.445Z,61.40
2017-09-30T13:58:46.891Z,61.34
2017-09-30T14:01:14.471Z,61.78
2017-09-30T14:03:41.883Z,61.54
2017-09-30T14:06:09.296Z,61.69
2017-09-30T14:08:36.764Z,61.47
2017-09-30T14:11:04.333Z,61.78
2017-09-30T14:13:31.801Z,61.58
2017-09-30T14:15:59.599Z,61.68
2017-09-30T14:18:27.015Z,61.55
2017-09-30T14:20:54.499Z,61.48
2017-09-30T14:23:21.951Z,62.21
2017-09-30T14:25:50.062Z,61.80
2017-09-30T14:28:17.483Z,61.60
2017-09-30T14:30:44.929Z,61.62
2017-09-30T14:33:12.359Z,61.62
2017-09-30T14:35:39.845Z,61.73
2017-09-30T14:38:07.401Z,61.47
2017-09-30T14:40:34.812Z,61.52
2017-09-30T14:43:02.239Z,61.49
2017-09-30T14:45:29.693Z,61.32
2017-09-30T14:47:57.354Z,61.33
2017-09-30T14:50:24.766Z,61.30
2017-09-30T14:52:52.449Z,61.10
2017-09-30T14:55:19.942Z,61.18
2017-09-30T14:57:47.362Z,61.14
2017-09-30T15:00:14.992Z,61.22
2017-09-30T15:02:42.486Z,61.17
2017-09-30T15:05:09.912Z,61.14
2017-09-30T15:07:37.384Z,61.26
2017-09-30T15:10:05.416Z,61.22
2017-09-30T15:12:32.946Z,61.16
2017-09-30T15:15:00.395Z,61.10
2017-09-30T15:17:27.822Z,60.80
2017-09-30T15:19:55.821Z,61.04
2017-09-30T15:22:23.682Z,61.17
2017-09-30T15:24:51.125Z,61.66
2017-09-30T15:27:18.615Z,61.52
2017-09-30T15:29:46.076Z,61.49
2017-09-30T15:32:13.494Z,61.53
2017-09-30T15:34:40.910Z,61.54
2017-09-30T15:37:08.444Z,61.41
2017-09-30T15:39:35.960Z,61.24
2017-09-30T15:42:03.431Z,61.27
2017-09-30T15:44:31.257Z,61.22
2017-09-30T15:46:58.678Z,61.11
2017-09-30T15:49:26.085Z,61.15
2017-09-30T15:51:53.887Z,61.08
2017-09-30T15:54:21.348Z,60.92
2017-09-30T15:56:48.793Z,60.82
2017-09-30T15:59:16.317Z,60.77
2017-09-30T16:01:43.741Z,60.96
2017-09-30T16:04:11.287Z,60.98
2017-09-30T16:06:38.911Z,60.82
2017-09-30T16:09:06.328Z,60.68
2017-09-30T16:11:33.744Z,60.62
2017-09-30T16:14:01.473Z,60.64
2017-09-30T16:16:29.503Z,60.61
2017-09-30T16:18:56.962Z,61.01
2017-09-30T16:21:24.775Z,61.11
2017-09-30T16:23:52.259Z,60.86
2017-09-30T16:26:19.826Z,60.80
2017-09-30T16:28:47.481Z,60.72
2017-09-30T16:31:14.965Z,61.12
2017-09-30T16:33:42.375Z,61.67
2017-09-30T16:36:09.846Z,62.04
2017-09-30T16:38:37.266Z,62.57
2017-09-30T16:41:04.680Z,62.58
2017-09-30T16:43:32.160Z,62.69
2017-09-30T16:45:59.598Z,62.74
2017-09-30T16:48:27.020Z,62.53
2017-09-30T16:50:54.476Z,62.35
2017-09-30T16:53:21.923Z,62.43
2017-09-30T16:55:49.353Z,62.51
2017-09-30T16:58:16.811Z,62.66
2017-09-30T17:00:44.225Z,62.61
2017-09-30T17:03:11.659Z,62.42
2017-09-30T17:05:39.223Z,62.39
2017-09-30T17:08:06.642Z,62.11
2017-09-30T17:10:34.047Z,61.74
2017-09-30T17:13:01.581Z,61.57
2017-09-30T17:15:29.017Z,61.58
2017-09-30T17:17:56.449Z,61.37
2017-09-30T17:20:25.020Z,61.43
2017-09-30T17:22:52.502Z,61.22
2017-09-30T17:25:19.907Z,61.36
2017-09-30T17:27:47.772Z,61.22
2017-09-30T17:30:15.192Z,61.40
2017-09-30T17:32:42.615Z,61.29
2017-09-30T17:35:10.245Z,61.31
2017-09-30T17:37:37.740Z,61.31
2017-09-30T17:40:05.190Z,61.10
2017-09-30T17:42:32.701Z,61.13
2017-09-30T17:45:00.117Z,60.99
2017-09-30T17:47:27.596Z,60.95
2017-09-30T17:49:55.414Z,60.89
2017-09-30T17:52:22.826Z,60.95
2017-09-30T17:54:50.366Z,60.95
2017-09-30T17:57:17.932Z,60.83
2017-09-30T17:59:45.357Z,61.18
2017-09-30T18:02:12.825Z,61.10
2017-09-30T18:04:40.395Z,60.94
2017-09-30T18:07:07.897Z,60.57
2017-09-30T18:09:35.346Z,60.80
2017-09-30T18:12:02.871Z,61.21
2017-09-30T18:14:30.296Z,61.26
2017-09-30T18:16:57.711Z,61.09
2017-09-30T18:19:25.153Z,61.38
2017-09-30T18:21:53.579Z,61.18
2017-09-30T18:24:20.996Z,61.42
2017-09-30T18:26:48.946Z,61.33
2017-09-30T18:29:16.354Z,61.02
2017-09-30T18:31:43.795Z,60.86
2017-09-30T18:34:11.288Z,61.04
2017-09-30T18:36:38.859Z,60.89
2017-09-30T18:39:06.287Z,61.01
2017-09-30T18:41:33.821Z,61.00
2017-09-30T18:44:01.248Z,60.77
2017-09-30T18:46:28.679Z,61.03
2017-09-30T18:48:57.092Z,60.55
2017-09-30T18:51:24.601Z,60.64
2017-09-30T18:53:52.742Z,60.43
2017-09-30T18:56:20.213Z,60.75
2017-09-30T18:58:47.610Z,60.54
2017-09-30T19:01:15.067Z,60.58
2017-09-30T19:03:42.554Z,60.40
2017-09-30T19:06:09.991Z,60.44
2017-09-30T19:08:37.398Z,60.35
2017-09-30T19:11:04.855Z,60.34
2017-09-30T19:13:32.316Z,60.36
2017-09-30T19:15:59.736Z,60.27
2017-09-30T19:18:27.214Z,60.53
2017-09-30T19:20:54.643Z,60.39
2017-09-30T19:23:22.066Z,60.37
2017-09-30T19:25:49.851Z,60.30
2017-09-30T19:28:17.503Z,60.43
2017-09-30T19:30:44.932Z,60.54
2017-09-30T19:33:12.416Z,60.49
2017-09-30T19:35:39.852Z,60.38
2017-09-30T19:38:07.292Z,60.21
2017-09-30T19:40:34.791Z,60.20
2017-09-30T19:43:02.243Z,60.09
2017-09-30T19:45:29.812Z,60.09
2017-09-30T19:47:57.273Z,59.78
2017-09-30T19:50:24.727Z,59.97
2017-09-30T19:52:52.269Z,59.74
2017-09-30T19:55:19.720Z,59.56
2017-09-30T19:57:47.151Z,59.39
2017-09-30T20:00:14.582Z,59.60
2017-09-30T20:02:42.047Z,59.42
2017-09-30T20:05:09.496Z,59.29
2017-09-30T20:07:36.970Z,59.07
2017-09-30T20:10:06.002Z,59.13
2017-09-30T20:12:33.638Z,58.85
2017-09-30T20:15:01.118Z,58.86
2017-09-30T20:17:28.790Z,58.82
2017-09-30T20:19:56.265Z,58.84
2017-09-30T20:22:23.754Z,58.94
2017-09-30T20:24:51.715Z,59.07
2017-09-30T20:27:19.168Z,58.91
2017-09-30T20:29:46.712Z,59.11
2017-09-30T20:32:14.336Z,59.00
2017-09-30T20:34:41.813Z,58.70
2017-09-30T20:37:09.280Z,58.86
2017-09-30T20:39:36.814Z,59.09
2017-09-30T20:42:04.954Z,58.96
2017-09-30T20:44:32.372Z,59.18
2017-09-30T20:46:59.918Z,59.17
2017-09-30T20:49:27.336Z,59.49
2017-09-30T20:51:54.785Z,61.12
2017-09-30T20:54:22.623Z,60.24
2017-09-30T20:56:50.114Z,60.17
2017-09-30T20:59:17.548Z,60.13
2017-09-30T21:01:45.401Z,60.00
2017-09-30T21:04:12.839Z,59.85
2017-09-30T21:06:40.251Z,59.85
2017-09-30T21:09:07.712Z,59.86
2017-09-30T21:11:35.154Z,59.88
2017-09-30T21:14:02.580Z,59.74
2017-09-30T21:16:30.094Z,59.68
2017-09-30T21:18:57.572Z,59.70
2017-09-30T21:21:25.006Z,59.66
2017-09-30T21:23:52.518Z,59.73
2017-09-30T21:26:20.025Z,59.56
2017-09-30T21:28:47.530Z,59.62
2017-09-30T21:31:15.043Z,59.72
2017-09-30T21:33:42.638Z,59.54
2017-09-30T21:36:10.101Z,59.79
2017-09-30T21:38:37.629Z,59.72
2017-09-30T21:41:05.039Z,59.78
2017-09-30T21:43:32.456Z,59.59
2017-09-30T21:46:00.340Z,59.44
2017-09-30T21:48:27.759Z,59.21
2017-09-30T21:50:55.179Z,59.19
2017-09-30T21:53:22.632Z,59.07
2017-09-30T21:55:50.055Z,59.12
2017-09-30T21:58:17.487Z,59.11
2017-09-30T22:00:44.948Z,59.13
2017-09-30T22:03:12.363Z,59.14
2017-09-30T22:05:39.783Z,59.20
2017-09-30T22:08:07.250Z,59.26
2017-09-30T22:10:34.668Z,59.23
2017-09-30T22:13:02.110Z,59.30
2017-09-30T22:15:29.556Z,59.25
2017-09-30T22:17:56.984Z,59.26
2017-09-30T22:20:24.390Z,59.36
2017-09-30T22:22:51.877Z,59.41
2017-09-30T22:25:19.292Z,59.34
2017-09-30T22:27:46.731Z,59.34
2017-09-30T22:30:14.271Z,59.32
2017-09-30T22:32:41.692Z,59.28
2017-09-30T22:35:09.117Z,59.29
2017-09-30T22:37:36.594Z,59.25
2017-09-30T22:40:04.082Z,59.27
2017-09-30T22:42:31.532Z,59.18
2017-09-30T22:44:59.062Z,59.17
2017-09-30T22:47:27.131Z,59.10
2017-09-30T22:49:54.547Z,59.10
2017-09-30T22:52:22.023Z,59.03
2017-09-30T22:54:49.435Z,59.04
2017-09-30T22:57:16.905Z,59.05
2017-09-30T22:59:44.478Z,58.99
2017-09-30T23:02:11.893Z,58.98
2017-09-30T23:04:39.312Z,58.92
2017-09-30T23:07:07.112Z,58.89
2017-09-30T23:09:34.531Z,58.90
2017-09-30T23:12:01.931Z,58.89
2017-09-30T23:14:29.439Z,58.88
2017-09-30T23:16:56.859Z,58.81
2017-09-30T23:19:24.261Z,58.87
2017-09-30T23:21:51.735Z,58.80
2017-09-30T23:24:19.164Z,58.84
2017-09-30T23:26:46.574Z,58.81
2017-09-30T23:29:14.040Z,58.84
2017-09-30T23:31:41.488Z,58.85
2017-09-30T23:34:08.888Z,58.76
2017-09-30T23:36:36.819Z,58.76
2017-09-30T23:39:04.234Z,58.74
2017-09-30T23:41:31.660Z,58.71
2017-09-30T23:43:59.186Z,58.74
2017-09-30T23:46:26.595Z,58.72
2017-09-30T23:48:54.016Z,58.68
2017-09-30T23:51:21.509Z,58.70
2017-09-30T23:53:48.952Z,58.75
2017-09-30T23:56:16.406Z,58.76
2017-09-30T23:58:43.851Z,58.78
